sensor_id;sensor_type;location;lat;lon;timestamp;P1;durP1;ratioP1;P2;durP2;ratioP2
527;SDS011;250;47.712;7.508;2022-09-09T00:01:40;3.17;;;1.90;;
527;SDS011;250;47.712;7.508;2022-09-09T00:04:19;2.33;;;1.10;;
527;SDS011;250;47.712;7.508;2022-09-09T00:06:55;6.80;;;1.20;;
527;SDS011;250;47.712;7.508;2022-09-09T00:09:29;2.50;;;1.23;;
527;SDS011;250;47.712;7.508;2022-09-09T00:12:00;1.80;;;1.20;;
527;SDS011;250;47.712;7.508;2022-09-09T00:14:34;4.33;;;1.50;;
527;SDS011;250;47.712;7.508;2022-09-09T00:17:12;3.47;;;1.53;;
527;SDS011;250;47.712;7.508;2022-09-09T00:19:46;2.47;;;1.40;;
527;SDS011;250;47.712;7.508;2022-09-09T00:22:20;3.00;;;1.80;;
527;SDS011;250;47.712;7.508;2022-09-09T00:24:49;2.53;;;1.60;;
527;SDS011;250;47.712;7.508;2022-09-09T00:27:20;2.33;;;1.73;;
527;SDS011;250;47.712;7.508;2022-09-09T00:29:54;6.40;;;1.80;;
527;SDS011;250;47.712;7.508;2022-09-09T00:32:28;2.97;;;1.17;;
527;SDS011;250;47.712;7.508;2022-09-09T00:34:58;4.97;;;1.90;;
527;SDS011;250;47.712;7.508;2022-09-09T00:37:28;3.43;;;1.37;;
527;SDS011;250;47.712;7.508;2022-09-09T00:39:59;5.73;;;1.73;;
527;SDS011;250;47.712;7.508;2022-09-09T00:42:33;3.47;;;1.67;;
527;SDS011;250;47.712;7.508;2022-09-09T00:45:10;3.27;;;2.00;;
527;SDS011;250;47.712;7.508;2022-09-09T00:47:52;2.00;;;1.20;;
527;SDS011;250;47.712;7.508;2022-09-09T00:50:26;2.60;;;1.50;;
527;SDS011;250;47.712;7.508;2022-09-09T00:53:04;3.00;;;1.60;;
527;SDS011;250;47.712;7.508;2022-09-09T00:55:39;2.30;;;1.50;;
527;SDS011;250;47.712;7.508;2022-09-09T00:58:11;1.93;;;1.50;;
527;SDS011;250;47.712;7.508;2022-09-09T01:00:40;2.80;;;1.40;;
527;SDS011;250;47.712;7.508;2022-09-09T01:03:19;5.43;;;3.10;;
527;SDS011;250;47.712;7.508;2022-09-09T01:05:51;3.10;;;1.80;;
527;SDS011;250;47.712;7.508;2022-09-09T01:08:36;3.77;;;1.30;;
527;SDS011;250;47.712;7.508;2022-09-09T01:11:15;4.07;;;1.60;;
527;SDS011;250;47.712;7.508;2022-09-09T01:13:49;5.00;;;1.40;;
527;SDS011;250;47.712;7.508;2022-09-09T01:16:24;3.93;;;1.40;;
527;SDS011;250;47.712;7.508;2022-09-09T01:18:53;2.83;;;1.50;;
527;SDS011;250;47.712;7.508;2022-09-09T01:21:23;5.13;;;1.87;;
527;SDS011;250;47.712;7.508;2022-09-09T01:24:14;4.27;;;1.70;;
527;SDS011;250;47.712;7.508;2022-09-09T01:26:48;5.90;;;1.50;;
527;SDS011;250;47.712;7.508;2022-09-09T01:29:18;5.40;;;1.90;;
527;SDS011;250;47.712;7.508;2022-09-09T01:31:52;3.60;;;1.53;;
527;SDS011;250;47.712;7.508;2022-09-09T01:34:21;8.60;;;1.43;;
527;SDS011;250;47.712;7.508;2022-09-09T01:36:49;2.80;;;1.40;;
527;SDS011;250;47.712;7.508;2022-09-09T01:39:23;3.67;;;1.43;;
527;SDS011;250;47.712;7.508;2022-09-09T01:41:52;3.30;;;1.33;;
527;SDS011;250;47.712;7.508;2022-09-09T01:44:21;3.10;;;1.30;;
527;SDS011;250;47.712;7.508;2022-09-09T01:46:49;6.03;;;1.30;;
527;SDS011;250;47.712;7.508;2022-09-09T01:49:16;3.27;;;1.40;;
527;SDS011;250;47.712;7.508;2022-09-09T01:51:44;2.47;;;1.40;;
527;SDS011;250;47.712;7.508;2022-09-09T01:54:15;3.30;;;1.37;;
527;SDS011;250;47.712;7.508;2022-09-09T01:56:44;3.60;;;1.60;;
527;SDS011;250;47.712;7.508;2022-09-09T02:02:16;3.43;;;1.37;;
527;SDS011;250;47.712;7.508;2022-09-09T02:04:45;3.10;;;1.40;;
527;SDS011;250;47.712;7.508;2022-09-09T02:07:25;3.90;;;1.43;;
527;SDS011;250;47.712;7.508;2022-09-09T02:10:02;4.23;;;1.40;;
527;SDS011;250;47.712;7.508;2022-09-09T02:12:34;3.67;;;1.97;;
527;SDS011;250;47.712;7.508;2022-09-09T02:15:07;2.20;;;1.57;;
527;SDS011;250;47.712;7.508;2022-09-09T02:17:40;2.23;;;1.20;;
527;SDS011;250;47.712;7.508;2022-09-09T02:20:09;2.27;;;1.50;;
527;SDS011;250;47.712;7.508;2022-09-09T02:22:39;4.53;;;1.87;;
527;SDS011;250;47.712;7.508;2022-09-09T02:25:09;3.63;;;1.40;;
527;SDS011;250;47.712;7.508;2022-09-09T02:27:40;5.17;;;1.40;;
527;SDS011;250;47.712;7.508;2022-09-09T02:30:11;7.17;;;1.70;;
527;SDS011;250;47.712;7.508;2022-09-09T02:32:40;3.20;;;1.60;;
527;SDS011;250;47.712;7.508;2022-09-09T02:35:09;2.87;;;1.73;;
527;SDS011;250;47.712;7.508;2022-09-09T02:37:39;3.10;;;1.60;;
527;SDS011;250;47.712;7.508;2022-09-09T02:40:10;2.90;;;1.50;;
527;SDS011;250;47.712;7.508;2022-09-09T02:42:38;4.73;;;1.57;;
527;SDS011;250;47.712;7.508;2022-09-09T02:45:07;1.70;;;1.13;;
527;SDS011;250;47.712;7.508;2022-09-09T02:47:37;2.73;;;1.40;;
527;SDS011;250;47.712;7.508;2022-09-09T02:50:10;2.17;;;1.10;;
527;SDS011;250;47.712;7.508;2022-09-09T02:52:43;2.83;;;1.70;;
527;SDS011;250;47.712;7.508;2022-09-09T02:55:18;2.63;;;1.30;;
527;SDS011;250;47.712;7.508;2022-09-09T02:57:54;3.37;;;1.23;;
527;SDS011;250;47.712;7.508;2022-09-09T03:00:23;4.23;;;1.77;;
527;SDS011;250;47.712;7.508;2022-09-09T03:02:52;1.97;;;1.10;;
527;SDS011;250;47.712;7.508;2022-09-09T03:05:19;2.43;;;1.40;;
527;SDS011;250;47.712;7.508;2022-09-09T03:07:47;6.20;;;1.33;;
527;SDS011;250;47.712;7.508;2022-09-09T03:10:15;2.23;;;1.50;;
527;SDS011;250;47.712;7.508;2022-09-09T03:12:43;3.50;;;1.57;;
527;SDS011;250;47.712;7.508;2022-09-09T03:15:10;2.40;;;1.30;;
527;SDS011;250;47.712;7.508;2022-09-09T03:17:37;7.27;;;1.73;;
527;SDS011;250;47.712;7.508;2022-09-09T03:20:05;4.63;;;1.90;;
527;SDS011;250;47.712;7.508;2022-09-09T03:22:33;3.30;;;1.63;;
527;SDS011;250;47.712;7.508;2022-09-09T03:25:01;3.10;;;1.40;;
527;SDS011;250;47.712;7.508;2022-09-09T03:27:28;4.93;;;1.40;;
527;SDS011;250;47.712;7.508;2022-09-09T03:29:55;4.40;;;1.37;;
527;SDS011;250;47.712;7.508;2022-09-09T03:32:22;5.43;;;1.70;;
527;SDS011;250;47.712;7.508;2022-09-09T03:34:51;3.70;;;1.60;;
527;SDS011;250;47.712;7.508;2022-09-09T03:37:20;3.20;;;1.10;;
527;SDS011;250;47.712;7.508;2022-09-09T03:39:47;3.03;;;0.93;;
527;SDS011;250;47.712;7.508;2022-09-09T03:42:15;3.03;;;1.20;;
527;SDS011;250;47.712;7.508;2022-09-09T03:44:44;1.73;;;1.10;;
527;SDS011;250;47.712;7.508;2022-09-09T03:47:15;6.10;;;0.97;;
527;SDS011;250;47.712;7.508;2022-09-09T03:49:42;2.00;;;1.00;;
527;SDS011;250;47.712;7.508;2022-09-09T03:52:09;3.90;;;1.10;;
527;SDS011;250;47.712;7.508;2022-09-09T03:54:38;2.40;;;0.90;;
527;SDS011;250;47.712;7.508;2022-09-09T03:57:07;5.93;;;1.80;;
527;SDS011;250;47.712;7.508;2022-09-09T03:59:35;2.63;;;1.30;;
527;SDS011;250;47.712;7.508;2022-09-09T04:02:02;3.13;;;1.40;;
527;SDS011;250;47.712;7.508;2022-09-09T04:04:29;4.80;;;1.30;;
527;SDS011;250;47.712;7.508;2022-09-09T04:06:56;1.57;;;0.80;;
527;SDS011;250;47.712;7.508;2022-09-09T04:09:23;3.50;;;1.00;;
527;SDS011;250;47.712;7.508;2022-09-09T04:11:51;4.33;;;1.43;;
527;SDS011;250;47.712;7.508;2022-09-09T04:14:20;2.33;;;1.27;;
527;SDS011;250;47.712;7.508;2022-09-09T04:16:47;3.17;;;1.37;;
527;SDS011;250;47.712;7.508;2022-09-09T04:19:14;2.40;;;1.27;;
527;SDS011;250;47.712;7.508;2022-09-09T04:21:41;3.67;;;1.20;;
527;SDS011;250;47.712;7.508;2022-09-09T04:24:09;2.60;;;1.03;;
527;SDS011;250;47.712;7.508;2022-09-09T04:26:37;7.53;;;1.33;;
527;SDS011;250;47.712;7.508;2022-09-09T04:29:05;2.10;;;0.97;;
527;SDS011;250;47.712;7.508;2022-09-09T04:31:32;2.50;;;1.30;;
527;SDS011;250;47.712;7.508;2022-09-09T04:33:59;4.30;;;1.10;;
527;SDS011;250;47.712;7.508;2022-09-09T04:36:30;8.60;;;1.23;;
527;SDS011;250;47.712;7.508;2022-09-09T04:38:58;4.10;;;1.30;;
527;SDS011;250;47.712;7.508;2022-09-09T04:41:26;2.50;;;1.33;;
527;SDS011;250;47.712;7.508;2022-09-09T04:43:54;2.83;;;1.10;;
527;SDS011;250;47.712;7.508;2022-09-09T04:46:22;2.77;;;1.30;;
527;SDS011;250;47.712;7.508;2022-09-09T04:48:49;3.80;;;1.17;;
527;SDS011;250;47.712;7.508;2022-09-09T04:51:17;4.97;;;1.70;;
527;SDS011;250;47.712;7.508;2022-09-09T04:53:45;2.83;;;1.10;;
527;SDS011;250;47.712;7.508;2022-09-09T04:56:13;1.97;;;1.30;;
527;SDS011;250;47.712;7.508;2022-09-09T04:58:41;2.93;;;1.10;;
527;SDS011;250;47.712;7.508;2022-09-09T05:01:09;3.10;;;1.23;;
527;SDS011;250;47.712;7.508;2022-09-09T05:03:39;2.57;;;1.63;;
527;SDS011;250;47.712;7.508;2022-09-09T05:06:07;4.83;;;1.40;;
527;SDS011;250;47.712;7.508;2022-09-09T05:08:35;3.57;;;2.03;;
527;SDS011;250;47.712;7.508;2022-09-09T05:11:03;3.10;;;1.40;;
527;SDS011;250;47.712;7.508;2022-09-09T05:13:30;3.90;;;1.10;;
527;SDS011;250;47.712;7.508;2022-09-09T05:15:57;3.80;;;1.60;;
527;SDS011;250;47.712;7.508;2022-09-09T05:18:24;3.27;;;1.10;;
527;SDS011;250;47.712;7.508;2022-09-09T05:20:56;5.30;;;1.90;;
527;SDS011;250;47.712;7.508;2022-09-09T05:23:25;2.40;;;1.40;;
527;SDS011;250;47.712;7.508;2022-09-09T05:25:56;3.77;;;1.40;;
527;SDS011;250;47.712;7.508;2022-09-09T05:28:23;6.37;;;1.53;;
527;SDS011;250;47.712;7.508;2022-09-09T05:30:55;5.80;;;1.80;;
527;SDS011;250;47.712;7.508;2022-09-09T05:33:28;2.47;;;1.73;;
527;SDS011;250;47.712;7.508;2022-09-09T05:36:00;3.90;;;1.37;;
527;SDS011;250;47.712;7.508;2022-09-09T05:38:29;1.80;;;1.17;;
527;SDS011;250;47.712;7.508;2022-09-09T05:40:57;2.33;;;1.33;;
527;SDS011;250;47.712;7.508;2022-09-09T05:43:25;2.80;;;1.07;;
527;SDS011;250;47.712;7.508;2022-09-09T05:46:00;3.60;;;1.20;;
527;SDS011;250;47.712;7.508;2022-09-09T05:48:29;3.57;;;1.50;;
527;SDS011;250;47.712;7.508;2022-09-09T05:50:57;4.30;;;1.67;;
527;SDS011;250;47.712;7.508;2022-09-09T05:53:26;2.80;;;1.37;;
527;SDS011;250;47.712;7.508;2022-09-09T05:56:00;3.13;;;1.40;;
527;SDS011;250;47.712;7.508;2022-09-09T05:58:29;2.90;;;1.30;;
527;SDS011;250;47.712;7.508;2022-09-09T06:01:00;4.67;;;1.60;;
527;SDS011;250;47.712;7.508;2022-09-09T06:03:28;3.30;;;1.30;;
527;SDS011;250;47.712;7.508;2022-09-09T06:05:59;2.97;;;1.37;;
527;SDS011;250;47.712;7.508;2022-09-09T06:08:28;6.70;;;1.73;;
527;SDS011;250;47.712;7.508;2022-09-09T06:11:00;7.30;;;1.80;;
527;SDS011;250;47.712;7.508;2022-09-09T06:13:28;3.20;;;1.27;;
527;SDS011;250;47.712;7.508;2022-09-09T06:15:55;5.93;;;1.80;;
527;SDS011;250;47.712;7.508;2022-09-09T06:18:23;2.13;;;1.40;;
527;SDS011;250;47.712;7.508;2022-09-09T06:20:54;3.50;;;1.53;;
527;SDS011;250;47.712;7.508;2022-09-09T06:23:22;6.80;;;1.80;;
527;SDS011;250;47.712;7.508;2022-09-09T06:25:51;2.43;;;1.33;;
527;SDS011;250;47.712;7.508;2022-09-09T06:28:26;7.00;;;2.47;;
527;SDS011;250;47.712;7.508;2022-09-09T06:30:56;1.83;;;1.30;;
527;SDS011;250;47.712;7.508;2022-09-09T06:33:24;2.00;;;1.10;;
527;SDS011;250;47.712;7.508;2022-09-09T06:35:53;2.83;;;1.70;;
527;SDS011;250;47.712;7.508;2022-09-09T06:38:22;4.37;;;1.80;;
527;SDS011;250;47.712;7.508;2022-09-09T06:40:54;2.70;;;1.40;;
527;SDS011;250;47.712;7.508;2022-09-09T06:43:22;5.17;;;1.50;;
527;SDS011;250;47.712;7.508;2022-09-09T06:45:54;4.07;;;1.80;;
527;SDS011;250;47.712;7.508;2022-09-09T06:48:22;4.57;;;1.43;;
527;SDS011;250;47.712;7.508;2022-09-09T06:50:51;4.37;;;2.10;;
527;SDS011;250;47.712;7.508;2022-09-09T06:53:19;2.37;;;1.60;;
527;SDS011;250;47.712;7.508;2022-09-09T06:55:46;3.43;;;1.30;;
527;SDS011;250;47.712;7.508;2022-09-09T06:58:14;7.83;;;1.63;;
527;SDS011;250;47.712;7.508;2022-09-09T07:00:41;2.60;;;1.07;;
527;SDS011;250;47.712;7.508;2022-09-09T07:03:09;3.67;;;1.20;;
527;SDS011;250;47.712;7.508;2022-09-09T07:05:36;4.30;;;1.40;;
527;SDS011;250;47.712;7.508;2022-09-09T07:08:03;2.83;;;1.40;;
527;SDS011;250;47.712;7.508;2022-09-09T07:10:30;5.00;;;1.63;;
527;SDS011;250;47.712;7.508;2022-09-09T07:12:59;2.80;;;1.20;;
527;SDS011;250;47.712;7.508;2022-09-09T07:15:28;4.07;;;1.40;;
527;SDS011;250;47.712;7.508;2022-09-09T07:17:55;2.07;;;1.10;;
527;SDS011;250;47.712;7.508;2022-09-09T07:20:26;3.40;;;1.53;;
527;SDS011;250;47.712;7.508;2022-09-09T07:22:54;4.50;;;1.53;;
527;SDS011;250;47.712;7.508;2022-09-09T07:25:22;3.43;;;1.43;;
527;SDS011;250;47.712;7.508;2022-09-09T07:27:49;4.77;;;1.40;;
527;SDS011;250;47.712;7.508;2022-09-09T07:30:16;1.70;;;0.93;;
527;SDS011;250;47.712;7.508;2022-09-09T07:32:46;1.93;;;0.97;;
527;SDS011;250;47.712;7.508;2022-09-09T07:35:13;3.93;;;1.37;;
527;SDS011;250;47.712;7.508;2022-09-09T07:37:40;3.67;;;1.40;;
527;SDS011;250;47.712;7.508;2022-09-09T07:40:07;5.60;;;1.23;;
527;SDS011;250;47.712;7.508;2022-09-09T07:42:35;4.80;;;1.20;;
527;SDS011;250;47.712;7.508;2022-09-09T07:45:02;1.70;;;1.00;;
527;SDS011;250;47.712;7.508;2022-09-09T07:47:30;3.73;;;1.10;;
527;SDS011;250;47.712;7.508;2022-09-09T07:49:59;3.73;;;1.20;;
527;SDS011;250;47.712;7.508;2022-09-09T07:52:26;2.50;;;1.20;;
527;SDS011;250;47.712;7.508;2022-09-09T07:54:53;4.10;;;1.20;;
527;SDS011;250;47.712;7.508;2022-09-09T07:57:21;3.50;;;0.83;;
527;SDS011;250;47.712;7.508;2022-09-09T07:59:48;3.30;;;1.50;;
527;SDS011;250;47.712;7.508;2022-09-09T08:02:15;2.50;;;1.47;;
527;SDS011;250;47.712;7.508;2022-09-09T08:04:42;4.57;;;1.77;;
527;SDS011;250;47.712;7.508;2022-09-09T08:07:11;2.33;;;0.90;;
527;SDS011;250;47.712;7.508;2022-09-09T08:09:38;2.07;;;0.80;;
527;SDS011;250;47.712;7.508;2022-09-09T08:12:05;3.13;;;1.07;;
527;SDS011;250;47.712;7.508;2022-09-09T08:14:34;3.87;;;1.00;;
527;SDS011;250;47.712;7.508;2022-09-09T08:17:01;2.10;;;0.80;;
527;SDS011;250;47.712;7.508;2022-09-09T08:19:28;4.20;;;1.47;;
527;SDS011;250;47.712;7.508;2022-09-09T08:21:55;5.70;;;1.00;;
527;SDS011;250;47.712;7.508;2022-09-09T08:24:23;2.00;;;0.63;;
527;SDS011;250;47.712;7.508;2022-09-09T08:26:51;2.33;;;0.80;;
527;SDS011;250;47.712;7.508;2022-09-09T08:29:18;4.97;;;1.40;;
527;SDS011;250;47.712;7.508;2022-09-09T08:31:46;3.77;;;1.10;;
527;SDS011;250;47.712;7.508;2022-09-09T08:34:15;3.63;;;1.20;;
527;SDS011;250;47.712;7.508;2022-09-09T08:36:43;2.57;;;1.00;;
527;SDS011;250;47.712;7.508;2022-09-09T08:39:11;2.80;;;0.90;;
527;SDS011;250;47.712;7.508;2022-09-09T08:41:49;3.03;;;1.10;;
527;SDS011;250;47.712;7.508;2022-09-09T08:44:38;2.07;;;0.80;;
527;SDS011;250;47.712;7.508;2022-09-09T08:47:18;3.43;;;1.23;;
527;SDS011;250;47.712;7.508;2022-09-09T08:49:57;2.30;;;1.00;;
527;SDS011;250;47.712;7.508;2022-09-09T08:52:36;2.40;;;0.80;;
527;SDS011;250;47.712;7.508;2022-09-09T08:55:11;5.20;;;1.03;;
527;SDS011;250;47.712;7.508;2022-09-09T08:57:49;6.63;;;1.00;;
527;SDS011;250;47.712;7.508;2022-09-09T09:00:18;3.60;;;0.60;;
527;SDS011;250;47.712;7.508;2022-09-09T09:02:46;4.07;;;1.03;;
527;SDS011;250;47.712;7.508;2022-09-09T09:05:23;3.90;;;1.07;;
527;SDS011;250;47.712;7.508;2022-09-09T09:07:59;3.00;;;1.00;;
527;SDS011;250;47.712;7.508;2022-09-09T09:10:39;4.73;;;0.90;;
527;SDS011;250;47.712;7.508;2022-09-09T09:13:15;3.20;;;0.90;;
527;SDS011;250;47.712;7.508;2022-09-09T09:15:46;4.00;;;1.13;;
527;SDS011;250;47.712;7.508;2022-09-09T09:18:18;2.20;;;1.20;;
527;SDS011;250;47.712;7.508;2022-09-09T09:20:49;2.03;;;0.80;;
527;SDS011;250;47.712;7.508;2022-09-09T09:23:21;2.60;;;1.10;;
527;SDS011;250;47.712;7.508;2022-09-09T09:25:50;1.93;;;0.90;;
527;SDS011;250;47.712;7.508;2022-09-09T09:28:24;1.70;;;0.80;;
527;SDS011;250;47.712;7.508;2022-09-09T09:30:54;2.63;;;0.93;;
527;SDS011;250;47.712;7.508;2022-09-09T09:33:24;5.67;;;1.10;;
527;SDS011;250;47.712;7.508;2022-09-09T09:35:55;2.10;;;0.83;;
527;SDS011;250;47.712;7.508;2022-09-09T09:38:25;5.57;;;1.03;;
527;SDS011;250;47.712;7.508;2022-09-09T09:40:54;3.50;;;1.00;;
527;SDS011;250;47.712;7.508;2022-09-09T09:43:26;2.20;;;0.70;;
527;SDS011;250;47.712;7.508;2022-09-09T09:45:55;4.03;;;1.00;;
527;SDS011;250;47.712;7.508;2022-09-09T09:48:23;4.27;;;1.00;;
527;SDS011;250;47.712;7.508;2022-09-09T09:50:52;3.00;;;1.30;;
527;SDS011;250;47.712;7.508;2022-09-09T09:53:23;2.90;;;1.00;;
527;SDS011;250;47.712;7.508;2022-09-09T09:55:56;3.27;;;0.90;;
527;SDS011;250;47.712;7.508;2022-09-09T09:58:26;2.03;;;0.90;;
527;SDS011;250;47.712;7.508;2022-09-09T10:00:58;2.43;;;0.80;;
527;SDS011;250;47.712;7.508;2022-09-09T10:03:27;2.33;;;1.03;;
527;SDS011;250;47.712;7.508;2022-09-09T10:05:55;3.33;;;0.80;;
527;SDS011;250;47.712;7.508;2022-09-09T10:08:23;2.83;;;0.93;;
527;SDS011;250;47.712;7.508;2022-09-09T10:10:55;2.37;;;1.03;;
527;SDS011;250;47.712;7.508;2022-09-09T10:13:39;3.83;;;0.97;;
527;SDS011;250;47.712;7.508;2022-09-09T10:16:22;1.50;;;0.80;;
527;SDS011;250;47.712;7.508;2022-09-09T10:18:59;4.20;;;1.03;;
527;SDS011;250;47.712;7.508;2022-09-09T10:21:36;3.43;;;0.80;;
527;SDS011;250;47.712;7.508;2022-09-09T10:24:31;2.37;;;1.13;;
527;SDS011;250;47.712;7.508;2022-09-09T10:27:27;3.47;;;1.00;;
527;SDS011;250;47.712;7.508;2022-09-09T10:30:09;3.37;;;1.10;;
527;SDS011;250;47.712;7.508;2022-09-09T10:32:45;8.30;;;1.30;;
527;SDS011;250;47.712;7.508;2022-09-09T10:38:14;3.23;;;0.77;;
527;SDS011;250;47.712;7.508;2022-09-09T10:43:38;1.93;;;0.97;;
527;SDS011;250;47.712;7.508;2022-09-09T10:46:17;3.60;;;0.80;;
527;SDS011;250;47.712;7.508;2022-09-09T10:48:58;4.23;;;1.13;;
527;SDS011;250;47.712;7.508;2022-09-09T10:51:36;3.00;;;0.70;;
527;SDS011;250;47.712;7.508;2022-09-09T10:54:23;2.37;;;0.93;;
527;SDS011;250;47.712;7.508;2022-09-09T10:56:58;2.47;;;0.83;;
527;SDS011;250;47.712;7.508;2022-09-09T10:59:31;3.20;;;0.83;;
527;SDS011;250;47.712;7.508;2022-09-09T11:02:05;2.77;;;0.80;;
527;SDS011;250;47.712;7.508;2022-09-09T11:04:41;3.20;;;0.73;;
527;SDS011;250;47.712;7.508;2022-09-09T11:07:12;2.00;;;0.73;;
527;SDS011;250;47.712;7.508;2022-09-09T11:09:47;4.07;;;1.43;;
527;SDS011;250;47.712;7.508;2022-09-09T11:12:20;1.93;;;0.90;;
527;SDS011;250;47.712;7.508;2022-09-09T11:14:50;6.80;;;1.00;;
527;SDS011;250;47.712;7.508;2022-09-09T11:17:26;1.53;;;0.80;;
527;SDS011;250;47.712;7.508;2022-09-09T11:20:04;6.23;;;0.90;;
527;SDS011;250;47.712;7.508;2022-09-09T11:22:33;2.40;;;0.83;;
527;SDS011;250;47.712;7.508;2022-09-09T11:25:04;2.80;;;0.80;;
527;SDS011;250;47.712;7.508;2022-09-09T11:27:37;3.30;;;0.87;;
527;SDS011;250;47.712;7.508;2022-09-09T11:30:19;3.90;;;1.50;;
527;SDS011;250;47.712;7.508;2022-09-09T11:32:58;2.07;;;0.90;;
527;SDS011;250;47.712;7.508;2022-09-09T11:35:47;2.80;;;0.90;;
527;SDS011;250;47.712;7.508;2022-09-09T11:38:27;3.33;;;0.60;;
527;SDS011;250;47.712;7.508;2022-09-09T11:41:00;4.10;;;1.10;;
527;SDS011;250;47.712;7.508;2022-09-09T11:43:30;3.40;;;0.87;;
527;SDS011;250;47.712;7.508;2022-09-09T11:46:00;1.93;;;1.13;;
527;SDS011;250;47.712;7.508;2022-09-09T11:48:31;3.10;;;0.70;;
527;SDS011;250;47.712;7.508;2022-09-09T11:51:00;3.77;;;0.80;;
527;SDS011;250;47.712;7.508;2022-09-09T11:53:33;2.40;;;0.80;;
527;SDS011;250;47.712;7.508;2022-09-09T11:56:11;2.33;;;0.60;;
527;SDS011;250;47.712;7.508;2022-09-09T11:58:43;3.17;;;1.00;;
527;SDS011;250;47.712;7.508;2022-09-09T12:01:27;2.33;;;0.87;;
527;SDS011;250;47.712;7.508;2022-09-09T12:06:58;1.80;;;0.80;;
527;SDS011;250;47.712;7.508;2022-09-09T12:09:38;6.20;;;1.00;;
527;SDS011;250;47.712;7.508;2022-09-09T12:12:23;2.80;;;0.80;;
527;SDS011;250;47.712;7.508;2022-09-09T12:17:46;3.40;;;0.70;;
527;SDS011;250;47.712;7.508;2022-09-09T12:20:18;3.10;;;0.90;;
527;SDS011;250;47.712;7.508;2022-09-09T12:22:49;6.90;;;1.00;;
527;SDS011;250;47.712;7.508;2022-09-09T12:25:28;5.50;;;1.10;;
527;SDS011;250;47.712;7.508;2022-09-09T12:28:03;2.10;;;0.70;;
527;SDS011;250;47.712;7.508;2022-09-09T12:30:37;2.53;;;0.80;;
527;SDS011;250;47.712;7.508;2022-09-09T12:33:12;3.20;;;0.80;;
527;SDS011;250;47.712;7.508;2022-09-09T12:35:44;4.97;;;1.03;;
527;SDS011;250;47.712;7.508;2022-09-09T12:38:15;1.87;;;0.60;;
527;SDS011;250;47.712;7.508;2022-09-09T12:40:53;2.97;;;1.00;;
527;SDS011;250;47.712;7.508;2022-09-09T12:43:22;4.83;;;0.90;;
527;SDS011;250;47.712;7.508;2022-09-09T12:45:49;4.77;;;1.03;;
527;SDS011;250;47.712;7.508;2022-09-09T12:48:23;2.00;;;0.90;;
527;SDS011;250;47.712;7.508;2022-09-09T12:50:56;4.60;;;0.83;;
527;SDS011;250;47.712;7.508;2022-09-09T12:53:25;1.70;;;0.60;;
527;SDS011;250;47.712;7.508;2022-09-09T12:55:56;3.83;;;0.80;;
527;SDS011;250;47.712;7.508;2022-09-09T12:58:24;2.27;;;0.93;;
527;SDS011;250;47.712;7.508;2022-09-09T13:00:54;4.30;;;1.00;;
527;SDS011;250;47.712;7.508;2022-09-09T13:03:22;6.50;;;1.00;;
527;SDS011;250;47.712;7.508;2022-09-09T13:05:50;3.03;;;0.90;;
527;SDS011;250;47.712;7.508;2022-09-09T13:08:19;4.90;;;0.90;;
527;SDS011;250;47.712;7.508;2022-09-09T13:10:47;5.33;;;1.00;;
527;SDS011;250;47.712;7.508;2022-09-09T13:13:20;1.50;;;0.70;;
527;SDS011;250;47.712;7.508;2022-09-09T13:15:49;2.70;;;0.80;;
527;SDS011;250;47.712;7.508;2022-09-09T13:18:19;5.17;;;0.93;;
527;SDS011;250;47.712;7.508;2022-09-09T13:20:49;3.10;;;0.90;;
527;SDS011;250;47.712;7.508;2022-09-09T13:23:17;2.70;;;0.80;;
527;SDS011;250;47.712;7.508;2022-09-09T13:25:56;4.60;;;1.37;;
527;SDS011;250;47.712;7.508;2022-09-09T13:28:25;2.80;;;0.73;;
527;SDS011;250;47.712;7.508;2022-09-09T13:30:55;2.07;;;0.60;;
527;SDS011;250;47.712;7.508;2022-09-09T13:33:29;2.53;;;0.83;;
527;SDS011;250;47.712;7.508;2022-09-09T13:35:57;2.30;;;0.60;;
527;SDS011;250;47.712;7.508;2022-09-09T13:38:27;3.80;;;0.80;;
527;SDS011;250;47.712;7.508;2022-09-09T13:40:56;3.87;;;1.73;;
527;SDS011;250;47.712;7.508;2022-09-09T13:43:26;2.50;;;0.63;;
527;SDS011;250;47.712;7.508;2022-09-09T13:45:55;1.67;;;0.60;;
527;SDS011;250;47.712;7.508;2022-09-09T13:48:23;2.33;;;0.73;;
527;SDS011;250;47.712;7.508;2022-09-09T13:50:55;3.67;;;0.70;;
527;SDS011;250;47.712;7.508;2022-09-09T13:53:23;2.97;;;0.70;;
527;SDS011;250;47.712;7.508;2022-09-09T13:55:51;2.13;;;0.50;;
527;SDS011;250;47.712;7.508;2022-09-09T13:58:19;2.00;;;0.70;;
527;SDS011;250;47.712;7.508;2022-09-09T14:00:47;2.67;;;0.60;;
527;SDS011;250;47.712;7.508;2022-09-09T14:03:15;2.90;;;0.70;;
527;SDS011;250;47.712;7.508;2022-09-09T14:05:42;2.83;;;0.70;;
527;SDS011;250;47.712;7.508;2022-09-09T14:08:13;4.17;;;0.90;;
527;SDS011;250;47.712;7.508;2022-09-09T14:10:47;2.27;;;0.90;;
527;SDS011;250;47.712;7.508;2022-09-09T14:13:16;2.37;;;0.90;;
527;SDS011;250;47.712;7.508;2022-09-09T14:15:43;4.87;;;0.73;;
527;SDS011;250;47.712;7.508;2022-09-09T14:18:12;3.83;;;0.83;;
527;SDS011;250;47.712;7.508;2022-09-09T14:20:39;2.03;;;0.60;;
527;SDS011;250;47.712;7.508;2022-09-09T14:23:09;1.90;;;0.50;;
527;SDS011;250;47.712;7.508;2022-09-09T14:25:39;5.10;;;1.00;;
527;SDS011;250;47.712;7.508;2022-09-09T14:28:07;2.03;;;0.80;;
527;SDS011;250;47.712;7.508;2022-09-09T14:30:38;1.30;;;0.50;;
527;SDS011;250;47.712;7.508;2022-09-09T14:33:08;2.07;;;0.60;;
527;SDS011;250;47.712;7.508;2022-09-09T14:35:38;2.53;;;0.50;;
527;SDS011;250;47.712;7.508;2022-09-09T14:38:06;2.13;;;0.70;;
527;SDS011;250;47.712;7.508;2022-09-09T14:40:34;2.40;;;0.80;;
527;SDS011;250;47.712;7.508;2022-09-09T14:43:01;3.37;;;0.80;;
527;SDS011;250;47.712;7.508;2022-09-09T14:45:29;2.90;;;0.80;;
527;SDS011;250;47.712;7.508;2022-09-09T14:47:57;1.80;;;0.60;;
527;SDS011;250;47.712;7.508;2022-09-09T14:50:24;1.40;;;0.80;;
527;SDS011;250;47.712;7.508;2022-09-09T14:52:51;2.10;;;0.63;;
527;SDS011;250;47.712;7.508;2022-09-09T14:55:18;3.13;;;0.60;;
527;SDS011;250;47.712;7.508;2022-09-09T14:57:46;1.93;;;0.60;;
527;SDS011;250;47.712;7.508;2022-09-09T15:00:14;1.40;;;0.60;;
527;SDS011;250;47.712;7.508;2022-09-09T15:02:41;2.67;;;0.70;;
527;SDS011;250;47.712;7.508;2022-09-09T15:05:10;3.73;;;0.87;;
527;SDS011;250;47.712;7.508;2022-09-09T15:07:37;2.53;;;0.83;;
527;SDS011;250;47.712;7.508;2022-09-09T15:10:04;2.10;;;0.50;;
527;SDS011;250;47.712;7.508;2022-09-09T15:12:32;2.90;;;0.70;;
527;SDS011;250;47.712;7.508;2022-09-09T15:15:00;2.00;;;0.80;;
527;SDS011;250;47.712;7.508;2022-09-09T15:17:28;2.03;;;0.73;;
527;SDS011;250;47.712;7.508;2022-09-09T15:19:55;4.27;;;0.97;;
527;SDS011;250;47.712;7.508;2022-09-09T15:22:24;1.40;;;0.50;;
527;SDS011;250;47.712;7.508;2022-09-09T15:24:51;4.20;;;0.90;;
527;SDS011;250;47.712;7.508;2022-09-09T15:27:18;1.77;;;0.50;;
527;SDS011;250;47.712;7.508;2022-09-09T15:29:45;2.90;;;0.77;;
527;SDS011;250;47.712;7.508;2022-09-09T15:32:12;1.80;;;0.63;;
527;SDS011;250;47.712;7.508;2022-09-09T15:34:39;4.67;;;0.90;;
527;SDS011;250;47.712;7.508;2022-09-09T15:37:06;2.87;;;0.80;;
527;SDS011;250;47.712;7.508;2022-09-09T15:39:37;3.93;;;1.27;;
527;SDS011;250;47.712;7.508;2022-09-09T15:42:04;1.30;;;0.60;;
527;SDS011;250;47.712;7.508;2022-09-09T15:44:37;2.10;;;0.70;;
527;SDS011;250;47.712;7.508;2022-09-09T15:47:05;3.03;;;0.90;;
527;SDS011;250;47.712;7.508;2022-09-09T15:49:32;2.80;;;0.60;;
527;SDS011;250;47.712;7.508;2022-09-09T15:51:59;1.97;;;0.70;;
527;SDS011;250;47.712;7.508;2022-09-09T15:54:28;1.60;;;0.80;;
527;SDS011;250;47.712;7.508;2022-09-09T15:57:00;1.43;;;0.50;;
527;SDS011;250;47.712;7.508;2022-09-09T15:59:29;2.53;;;0.80;;
527;SDS011;250;47.712;7.508;2022-09-09T16:01:58;2.70;;;1.00;;
527;SDS011;250;47.712;7.508;2022-09-09T16:04:26;2.10;;;0.60;;
527;SDS011;250;47.712;7.508;2022-09-09T16:06:55;1.70;;;1.50;;
527;SDS011;250;47.712;7.508;2022-09-09T16:09:24;1.93;;;0.70;;
527;SDS011;250;47.712;7.508;2022-09-09T16:11:52;3.80;;;0.70;;
527;SDS011;250;47.712;7.508;2022-09-09T16:14:23;3.63;;;0.70;;
527;SDS011;250;47.712;7.508;2022-09-09T16:16:50;1.53;;;0.70;;
527;SDS011;250;47.712;7.508;2022-09-09T16:19:17;1.80;;;0.87;;
527;SDS011;250;47.712;7.508;2022-09-09T16:21:45;2.20;;;0.93;;